createdAt,value
2018-10-12T00:00:01.524Z,65.54
2018-10-12T00:01:06.892Z,65.95
2018-10-12T00:02:11.012Z,65.82
2018-10-12T00:03:15.072Z,65.52
2018-10-12T00:04:19.096Z,65.72
2018-10-12T00:05:23.155Z,65.94
2018-10-12T00:06:27.523Z,66.27
2018-10-12T00:07:31.532Z,65.96
2018-10-12T00:08:35.611Z,66.00
2018-10-12T00:09:39.628Z,66.29
2018-10-12T00:10:43.645Z,65.86
2018-10-12T00:11:47.666Z,65.94
2018-10-12T00:12:51.670Z,65.86
2018-10-12T00:13:55.702Z,65.53
2018-10-12T00:14:59.712Z,65.49
2018-10-12T00:16:03.807Z,65.54
2018-10-12T00:17:07.811Z,65.47
2018-10-12T00:18:11.872Z,66.02
2018-10-12T00:19:15.902Z,65.75
2018-10-12T00:20:19.908Z,66.19
2018-10-12T00:21:23.892Z,65.64
2018-10-12T00:22:27.903Z,65.51
2018-10-12T00:23:32.307Z,66.27
2018-10-12T00:24:36.304Z,65.94
2018-10-12T00:25:40.316Z,65.85
2018-10-12T00:26:44.330Z,66.06
2018-10-12T00:27:48.332Z,66.09
2018-10-12T00:28:52.331Z,66.20
2018-10-12T00:29:56.387Z,65.57
2018-10-12T00:31:00.387Z,66.23
2018-10-12T00:32:04.400Z,66.19
2018-10-12T00:33:08.461Z,65.54
2018-10-12T00:34:12.529Z,65.69
2018-10-12T00:35:16.550Z,66.19
2018-10-12T00:36:20.550Z,65.74
2018-10-12T00:37:24.597Z,66.37
2018-10-12T00:38:28.667Z,66.19
2018-10-12T00:39:32.695Z,66.09
2018-10-12T00:40:36.860Z,65.88
2018-10-12T00:41:40.955Z,65.59
2018-10-12T00:42:44.959Z,66.51
2018-10-12T00:43:49.043Z,65.75
2018-10-12T00:44:53.021Z,65.85
2018-10-12T00:45:57.029Z,66.25
2018-10-12T00:47:01.027Z,66.03
2018-10-12T00:48:05.012Z,66.49
2018-10-12T00:49:09.432Z,65.93
2018-10-12T00:50:13.428Z,65.78
2018-10-12T00:51:17.523Z,65.88
2018-10-12T00:52:21.550Z,66.32
2018-10-12T00:53:25.660Z,66.01
2018-10-12T00:54:29.704Z,66.13
2018-10-12T00:55:34.499Z,66.26
2018-10-12T00:56:38.579Z,66.54
2018-10-12T00:57:42.579Z,66.51
2018-10-12T00:58:46.580Z,66.59
2018-10-12T00:59:50.590Z,66.65
2018-10-12T01:00:54.584Z,66.00
2018-10-12T01:01:58.599Z,66.45
2018-10-12T01:03:02.604Z,66.69
2018-10-12T01:04:06.604Z,66.61
2018-10-12T01:05:10.594Z,66.62
2018-10-12T01:06:14.583Z,66.02
2018-10-12T01:07:18.608Z,66.95
2018-10-12T01:08:22.627Z,66.91
2018-10-12T01:09:26.796Z,66.83
2018-10-12T01:10:30.809Z,66.87
2018-10-12T01:11:34.812Z,66.66
2018-10-12T01:12:38.998Z,66.23
2018-10-12T01:13:43.135Z,66.71
2018-10-12T01:14:47.148Z,66.71
2018-10-12T01:15:51.159Z,66.96
2018-10-12T01:16:55.380Z,66.55
2018-10-12T01:17:59.399Z,66.40
2018-10-12T01:19:03.409Z,66.39
2018-10-12T01:20:07.952Z,67.25
2018-10-12T01:21:11.991Z,66.76
2018-10-12T01:22:16.049Z,66.82
2018-10-12T01:23:20.195Z,67.14
2018-10-12T01:24:24.234Z,67.13
2018-10-12T01:25:28.289Z,67.14
2018-10-12T01:26:32.337Z,67.13
2018-10-12T01:27:36.432Z,66.93
2018-10-12T01:28:40.452Z,66.54
2018-10-12T01:29:44.520Z,66.99
2018-10-12T01:30:48.527Z,67.09
2018-10-12T01:31:52.601Z,66.96
2018-10-12T01:33:02.728Z,66.58
2018-10-12T01:34:06.888Z,67.05
2018-10-12T01:35:10.882Z,66.82
2018-10-12T01:36:14.887Z,66.40
2018-10-12T01:37:19.048Z,66.72
2018-10-12T01:38:23.063Z,67.03
2018-10-12T01:39:27.144Z,66.82
2018-10-12T01:40:31.953Z,67.10
2018-10-12T01:41:36.080Z,66.60
2018-10-12T01:42:40.096Z,66.43
2018-10-12T01:43:44.127Z,67.15
2018-10-12T01:44:48.174Z,66.55
2018-10-12T01:45:52.171Z,66.93
2018-10-12T01:46:56.183Z,66.96
2018-10-12T01:48:00.192Z,67.02
2018-10-12T01:49:04.213Z,66.73
2018-10-12T01:50:08.260Z,67.07
2018-10-12T01:51:12.284Z,67.01
2018-10-12T01:52:16.343Z,67.24
2018-10-12T01:53:20.472Z,66.84
2018-10-12T01:54:24.594Z,66.51
2018-10-12T01:55:28.695Z,67.31
2018-10-12T01:56:32.641Z,66.84
2018-10-12T01:57:36.641Z,67.13
2018-10-12T01:58:40.721Z,66.94
2018-10-12T01:59:44.720Z,67.33
2018-10-12T02:00:49.069Z,67.36
2018-10-12T02:01:53.096Z,67.27
2018-10-12T02:02:57.121Z,66.92
2018-10-12T02:04:01.101Z,67.10
2018-10-12T02:05:05.133Z,66.66
2018-10-12T02:06:09.168Z,66.89
2018-10-12T02:07:13.252Z,66.72
2018-10-12T02:08:17.247Z,67.12
2018-10-12T02:09:21.347Z,67.10
2018-10-12T02:10:25.379Z,67.20
2018-10-12T02:11:29.412Z,66.80
2018-10-12T02:12:33.540Z,66.72
2018-10-12T02:13:37.562Z,67.34
2018-10-12T02:14:41.607Z,67.39
2018-10-12T02:15:45.862Z,67.02
2018-10-12T02:16:50.280Z,67.08
2018-10-12T02:17:54.615Z,67.39
2018-10-12T02:18:58.685Z,66.88
2018-10-12T02:20:02.683Z,66.93
2018-10-12T02:21:06.920Z,67.24
2018-10-12T02:22:10.995Z,67.08
2018-10-12T02:23:15.021Z,67.10
2018-10-12T02:24:19.054Z,67.57
2018-10-12T02:25:23.124Z,67.37
2018-10-12T02:26:27.287Z,67.10
2018-10-12T02:27:31.329Z,66.98
2018-10-12T02:28:36.302Z,67.33
2018-10-12T02:29:40.294Z,67.31
2018-10-12T02:30:44.363Z,67.03
2018-10-12T02:31:48.388Z,67.55
2018-10-12T02:32:52.569Z,67.06
2018-10-12T02:33:56.737Z,67.54
2018-10-12T02:35:00.959Z,67.18
2018-10-12T02:36:04.964Z,67.46
2018-10-12T02:37:08.974Z,67.66
2018-10-12T02:38:13.020Z,67.01
2018-10-12T02:39:17.067Z,67.53
2018-10-12T02:40:21.200Z,67.16
2018-10-12T02:41:25.168Z,67.68
2018-10-12T02:42:29.224Z,67.38
2018-10-12T02:43:33.247Z,67.27
2018-10-12T02:44:37.311Z,66.91
2018-10-12T02:45:41.567Z,67.07
2018-10-12T02:46:45.591Z,67.41
2018-10-12T02:47:49.655Z,67.65
2018-10-12T02:48:53.688Z,67.40
2018-10-12T02:49:57.779Z,67.35
2018-10-12T02:51:01.816Z,67.08
2018-10-12T02:52:05.849Z,67.19
2018-10-12T02:53:09.925Z,67.63
2018-10-12T02:54:13.955Z,66.99
2018-10-12T02:55:18.169Z,67.60
2018-10-12T02:56:23.132Z,67.28
2018-10-12T02:57:27.131Z,66.87
2018-10-12T02:58:31.247Z,67.26
2018-10-12T02:59:35.307Z,67.42
2018-10-12T03:00:39.335Z,67.81
2018-10-12T03:01:43.479Z,67.17
2018-10-12T03:02:47.487Z,67.95
2018-10-12T03:03:52.299Z,67.24
2018-10-12T03:04:56.292Z,67.87
2018-10-12T03:06:00.271Z,67.87
2018-10-12T03:07:04.255Z,67.54
2018-10-12T03:08:08.255Z,67.68
2018-10-12T03:09:12.766Z,67.93
2018-10-12T03:10:16.789Z,67.80
2018-10-12T03:11:20.779Z,67.71
2018-10-12T03:12:24.920Z,67.42
2018-10-12T03:13:28.887Z,67.68
2018-10-12T03:14:32.943Z,67.32
2018-10-12T03:15:36.933Z,67.51
2018-10-12T03:16:40.907Z,67.22
2018-10-12T03:17:44.916Z,67.90
2018-10-12T03:18:48.892Z,67.85
2018-10-12T03:19:52.864Z,67.44
2018-10-12T03:20:56.893Z,67.33
2018-10-12T03:22:00.906Z,66.92
2018-10-12T03:23:04.866Z,67.48
2018-10-12T03:24:08.823Z,67.37
2018-10-12T03:25:12.801Z,67.56
2018-10-12T03:26:16.824Z,67.04
2018-10-12T03:27:20.808Z,66.91
2018-10-12T03:28:27.186Z,66.74
2018-10-12T03:29:31.185Z,67.01
2018-10-12T03:30:35.188Z,67.38
2018-10-12T03:31:39.184Z,67.27
2018-10-12T03:32:43.184Z,67.41
2018-10-12T03:33:47.196Z,67.05
2018-10-12T03:34:51.286Z,66.72
2018-10-12T03:35:55.524Z,67.11
2018-10-12T03:36:59.562Z,67.55
2018-10-12T03:38:03.528Z,66.87
2018-10-12T03:39:07.973Z,67.05
2018-10-12T03:40:12.024Z,67.21
2018-10-12T03:41:16.072Z,67.30
2018-10-12T03:42:20.064Z,67.35
2018-10-12T03:43:24.151Z,67.51
2018-10-12T03:44:28.139Z,67.68
2018-10-12T03:45:32.131Z,67.61
2018-10-12T03:46:36.112Z,67.33
2018-10-12T03:47:40.156Z,67.19
2018-10-12T03:48:44.140Z,67.74
2018-10-12T03:49:48.238Z,67.14
2018-10-12T03:50:52.171Z,67.78
2018-10-12T03:51:56.250Z,67.40
2018-10-12T03:53:00.187Z,67.15
2018-10-12T03:54:04.176Z,67.15
2018-10-12T03:55:08.156Z,67.32
2018-10-12T03:56:12.363Z,67.40
2018-10-12T03:57:16.407Z,67.51
2018-10-12T03:58:20.411Z,68.05
2018-10-12T03:59:24.496Z,68.02
2018-10-12T04:00:28.599Z,67.84
2018-10-12T04:01:32.606Z,67.38
2018-10-12T04:02:36.929Z,68.37
2018-10-12T04:03:41.232Z,67.87
2018-10-12T04:04:45.237Z,67.77
2018-10-12T04:05:49.346Z,68.06
2018-10-12T04:06:53.721Z,67.49
2018-10-12T04:07:57.852Z,67.33
2018-10-12T04:09:01.993Z,67.85
2018-10-12T04:10:05.989Z,68.00
2018-10-12T04:11:09.985Z,68.12
2018-10-12T04:12:14.003Z,67.66
2018-10-12T04:13:18.003Z,67.68
2018-10-12T04:14:22.051Z,67.87
2018-10-12T04:15:26.131Z,67.92
2018-10-12T04:16:30.131Z,68.36
2018-10-12T04:17:34.159Z,68.37
2018-10-12T04:18:38.183Z,68.22
2018-10-12T04:19:42.247Z,68.41
2018-10-12T04:20:46.219Z,68.02
2018-10-12T04:21:50.286Z,67.58
2018-10-12T04:22:54.301Z,68.36
2018-10-12T04:23:58.327Z,68.01
2018-10-12T04:25:02.334Z,68.09
2018-10-12T04:26:06.348Z,68.78
2018-10-12T04:27:10.397Z,68.29
2018-10-12T04:28:14.499Z,68.23
2018-10-12T04:29:18.507Z,67.97
2018-10-12T04:30:22.623Z,68.67
2018-10-12T04:31:26.637Z,68.67
2018-10-12T04:32:30.648Z,68.71
2018-10-12T04:33:34.643Z,68.79
2018-10-12T04:34:38.735Z,68.63
2018-10-12T04:35:42.797Z,68.08
2018-10-12T04:36:46.831Z,68.06
2018-10-12T04:37:50.903Z,68.70
2018-10-12T04:39:06.435Z,68.12
2018-10-12T04:40:30.454Z,69.07
2018-10-12T04:41:34.570Z,68.79
2018-10-12T04:42:38.573Z,68.27
2018-10-12T04:43:42.985Z,68.26
2018-10-12T04:44:47.048Z,68.28
2018-10-12T04:45:51.177Z,68.36
2018-10-12T04:46:55.190Z,68.53
2018-10-12T04:47:59.187Z,68.39
2018-10-12T04:49:04.339Z,69.02
2018-10-12T04:50:08.452Z,68.59
2018-10-12T04:51:25.904Z,68.48
2018-10-12T04:52:31.963Z,69.00
2018-10-12T04:53:36.196Z,68.70
2018-10-12T04:54:40.205Z,68.62
2018-10-12T04:55:44.281Z,69.28
2018-10-12T04:56:48.918Z,68.65
2018-10-12T04:57:52.932Z,68.89
2018-10-12T04:58:56.940Z,68.73
2018-10-12T05:00:00.915Z,68.62
2018-10-12T05:01:04.940Z,69.05
2018-10-12T05:02:08.903Z,69.47
2018-10-12T05:03:12.901Z,68.71
2018-10-12T05:04:16.907Z,68.83
2018-10-12T05:05:20.951Z,68.84
2018-10-12T05:06:25.145Z,68.96
2018-10-12T05:07:29.250Z,68.77
2018-10-12T05:08:33.479Z,68.82
2018-10-12T05:09:37.475Z,69.27
2018-10-12T05:10:41.603Z,69.53
2018-10-12T05:11:45.647Z,69.03
2018-10-12T05:12:49.646Z,68.86
2018-10-12T05:13:53.615Z,69.40
2018-10-12T05:14:57.736Z,69.43
2018-10-12T05:16:02.309Z,69.22
2018-10-12T05:17:06.390Z,68.89
2018-10-12T05:18:10.492Z,69.53
2018-10-12T05:19:14.420Z,69.58
2018-10-12T05:20:18.388Z,69.60
2018-10-12T05:21:22.372Z,69.11
2018-10-12T05:22:26.363Z,69.21
2018-10-12T05:23:30.531Z,69.14
2018-10-12T05:24:34.563Z,69.07
2018-10-12T05:25:38.670Z,69.36
2018-10-12T05:26:42.734Z,69.08
2018-10-12T05:27:46.873Z,69.77
2018-10-12T05:28:51.125Z,69.39
2018-10-12T05:29:55.122Z,69.12
2018-10-12T05:30:59.114Z,69.77
2018-10-12T05:32:03.096Z,69.87
2018-10-12T05:33:07.248Z,69.92
2018-10-12T05:34:11.264Z,69.49
2018-10-12T05:35:15.276Z,69.64
2018-10-12T05:36:19.280Z,69.24
2018-10-12T05:37:23.304Z,69.64
2018-10-12T05:38:28.748Z,69.76
2018-10-12T05:39:32.755Z,69.50
2018-10-12T05:40:36.803Z,69.87
2018-10-12T05:41:40.799Z,69.36
2018-10-12T05:42:44.980Z,69.52
2018-10-12T05:43:49.062Z,69.97
2018-10-12T05:44:52.999Z,70.11
2018-10-12T05:45:57.021Z,69.95
2018-10-12T05:47:01.039Z,69.47
2018-10-12T05:48:16.382Z,70.19
2018-10-12T05:49:31.648Z,69.55
2018-10-12T05:50:35.966Z,69.77
2018-10-12T05:51:40.719Z,69.56
2018-10-12T05:52:44.796Z,69.69
2018-10-12T05:53:48.791Z,70.12
2018-10-12T05:54:52.848Z,69.68
2018-10-12T05:55:57.630Z,69.58
2018-10-12T05:57:01.828Z,70.07
2018-10-12T05:58:06.292Z,70.11
2018-10-12T05:59:10.348Z,69.70
2018-10-12T06:00:14.377Z,69.83
2018-10-12T06:01:18.492Z,69.76
2018-10-12T06:02:22.730Z,70.27
2018-10-12T06:03:26.774Z,70.39
2018-10-12T06:04:30.795Z,69.78
2018-10-12T06:05:34.847Z,70.46
2018-10-12T06:06:38.936Z,70.05
2018-10-12T06:07:43.016Z,70.28
2018-10-12T06:08:47.100Z,69.92
2018-10-12T06:09:51.419Z,70.44
2018-10-12T06:10:55.263Z,69.90
2018-10-12T06:11:59.261Z,69.96
2018-10-12T06:13:03.323Z,70.35
2018-10-12T06:14:07.368Z,69.56
2018-10-12T06:15:11.437Z,69.56
2018-10-12T06:16:15.583Z,70.01
2018-10-12T06:17:19.634Z,69.94
2018-10-12T06:18:23.699Z,70.29
2018-10-12T06:19:27.747Z,69.49
2018-10-12T06:20:31.775Z,70.06
2018-10-12T06:21:35.819Z,69.50
2018-10-12T06:22:39.788Z,69.90
2018-10-12T06:23:43.831Z,69.47
2018-10-12T06:24:48.010Z,69.45
2018-10-12T06:25:52.072Z,69.63
2018-10-12T06:26:56.556Z,69.86
2018-10-12T06:28:00.692Z,70.12
2018-10-12T06:29:04.712Z,69.54
2018-10-12T06:30:09.046Z,69.82
2018-10-12T06:31:13.353Z,69.58
2018-10-12T06:32:17.400Z,70.21
2018-10-12T06:33:21.475Z,69.71
2018-10-12T06:34:25.524Z,69.44
2018-10-12T06:35:29.832Z,69.47
2018-10-12T06:36:33.900Z,69.73
2018-10-12T06:37:37.923Z,69.72
2018-10-12T06:38:41.959Z,69.69
2018-10-12T06:39:46.219Z,69.30
2018-10-12T06:40:53.072Z,69.72
2018-10-12T06:41:57.035Z,70.00
2018-10-12T06:43:01.252Z,69.21
2018-10-12T06:44:05.335Z,69.50
2018-10-12T06:45:09.364Z,69.17
2018-10-12T06:46:13.441Z,69.54
2018-10-12T06:47:17.479Z,69.90
2018-10-12T06:48:21.583Z,69.80
2018-10-12T06:49:25.583Z,69.19
2018-10-12T06:50:29.810Z,69.41
2018-10-12T06:51:33.869Z,69.74
2018-10-12T06:52:37.911Z,69.78
2018-10-12T06:53:41.981Z,69.32
2018-10-12T06:54:45.952Z,69.61
2018-10-12T06:55:49.992Z,69.54
2018-10-12T06:56:54.096Z,69.01
2018-10-12T06:57:58.372Z,69.49
2018-10-12T06:59:02.542Z,69.44
2018-10-12T07:00:06.851Z,69.35
2018-10-12T07:01:10.796Z,68.92
2018-10-12T07:02:16.355Z,69.13
2018-10-12T07:03:20.584Z,69.53
2018-10-12T07:04:24.402Z,69.06
2018-10-12T07:05:28.459Z,69.12
2018-10-12T07:06:32.524Z,69.24
2018-10-12T07:07:36.542Z,68.71
2018-10-12T07:08:40.633Z,68.83
2018-10-12T07:09:44.743Z,69.07
2018-10-12T07:10:48.777Z,68.75
2018-10-12T07:11:52.793Z,69.22
2018-10-12T07:12:56.815Z,68.64
2018-10-12T07:14:00.855Z,69.15
2018-10-12T07:15:06.252Z,68.61
2018-10-12T07:16:10.359Z,68.55
2018-10-12T07:17:14.482Z,68.94
2018-10-12T07:18:18.463Z,68.72
2018-10-12T07:19:22.516Z,68.53
2018-10-12T07:20:26.546Z,68.65
2018-10-12T07:21:30.544Z,68.94
2018-10-12T07:22:34.666Z,69.03
2018-10-12T07:23:38.654Z,68.64
2018-10-12T07:24:42.609Z,68.34
2018-10-12T07:25:46.712Z,68.85
2018-10-12T07:26:50.739Z,68.81
2018-10-12T07:27:54.772Z,68.33
2018-10-12T07:28:58.804Z,68.36
2018-10-12T07:30:02.779Z,68.26
2018-10-12T07:31:07.462Z,68.74
2018-10-12T07:32:11.412Z,68.65
2018-10-12T07:33:15.400Z,68.01
2018-10-12T07:34:19.456Z,68.94
2018-10-12T07:35:23.488Z,68.21
2018-10-12T07:36:27.800Z,68.34
2018-10-12T07:37:31.844Z,68.74
2018-10-12T07:38:35.927Z,68.03
2018-10-12T07:39:46.735Z,68.50
2018-10-12T07:40:50.759Z,68.04
2018-10-12T07:41:54.751Z,68.01
2018-10-12T07:42:58.740Z,68.05
2018-10-12T07:44:02.762Z,67.80
2018-10-12T07:45:07.106Z,67.83
2018-10-12T07:46:11.171Z,67.56
2018-10-12T07:47:15.175Z,67.40
2018-10-12T07:48:19.265Z,67.13
2018-10-12T07:49:23.305Z,67.50
2018-10-12T07:50:27.519Z,67.44
2018-10-12T07:51:31.531Z,67.75
2018-10-12T07:52:35.582Z,67.46
2018-10-12T07:53:39.555Z,67.24
2018-10-12T07:54:43.556Z,67.54
2018-10-12T07:55:47.544Z,67.58
2018-10-12T07:56:51.567Z,67.55
2018-10-12T07:57:55.601Z,66.96
2018-10-12T07:59:00.096Z,67.12
2018-10-12T08:00:04.185Z,67.75
2018-10-12T08:01:08.108Z,67.54
2018-10-12T08:02:13.052Z,67.37
2018-10-12T08:03:18.135Z,66.84
2018-10-12T08:04:22.151Z,67.41
2018-10-12T08:05:26.172Z,67.42
2018-10-12T08:06:30.225Z,67.15
2018-10-12T08:07:34.148Z,67.10
2018-10-12T08:08:38.191Z,67.00
2018-10-12T08:09:42.235Z,67.26
2018-10-12T08:10:46.204Z,66.67
2018-10-12T08:11:50.184Z,66.65
2018-10-12T08:12:54.164Z,67.13
2018-10-12T08:13:58.296Z,67.28
2018-10-12T08:15:02.177Z,67.22
2018-10-12T08:16:06.189Z,66.85
2018-10-12T08:17:10.178Z,66.42
2018-10-12T08:18:14.131Z,66.81
2018-10-12T08:19:18.128Z,66.79
2018-10-12T08:20:22.280Z,66.86
2018-10-12T08:21:26.260Z,66.71
2018-10-12T08:22:30.243Z,66.84
2018-10-12T08:23:34.280Z,66.83
2018-10-12T08:24:38.280Z,66.78
2018-10-12T08:25:42.878Z,66.87
2018-10-12T08:26:46.921Z,66.63
2018-10-12T08:27:50.949Z,66.54
2018-10-12T08:28:54.985Z,66.42
2018-10-12T08:29:59.303Z,66.08
2018-10-12T08:31:03.365Z,66.64
2018-10-12T08:32:07.355Z,66.58
2018-10-12T08:33:11.335Z,66.33
2018-10-12T08:34:15.376Z,66.20
2018-10-12T08:35:19.375Z,66.33
2018-10-12T08:36:23.440Z,66.46
2018-10-12T08:37:27.624Z,66.31
2018-10-12T08:38:31.689Z,66.61
2018-10-12T08:39:35.687Z,66.60
2018-10-12T08:40:39.694Z,66.06
2018-10-12T08:41:43.684Z,65.79
2018-10-12T08:42:47.666Z,66.00
2018-10-12T08:43:51.639Z,66.26
2018-10-12T08:44:55.641Z,65.80
2018-10-12T08:45:59.608Z,65.84
2018-10-12T08:47:03.641Z,66.21
2018-10-12T08:48:07.703Z,65.92
2018-10-12T08:49:11.709Z,65.80
2018-10-12T08:50:15.721Z,66.09
2018-10-12T08:51:19.736Z,65.88
2018-10-12T08:52:23.817Z,65.79
2018-10-12T08:53:27.899Z,66.10
2018-10-12T08:54:31.944Z,65.70
2018-10-12T08:55:36.012Z,65.49
2018-10-12T08:56:40.305Z,65.55
2018-10-12T08:57:44.589Z,65.21
2018-10-12T08:58:48.628Z,65.13
2018-10-12T08:59:52.831Z,64.98
2018-10-12T09:00:56.801Z,65.38
2018-10-12T09:02:00.779Z,65.30
2018-10-12T09:03:04.866Z,65.37
2018-10-12T09:04:08.895Z,65.65
2018-10-12T09:05:12.901Z,65.17
2018-10-12T09:06:17.003Z,64.91
2018-10-12T09:07:21.007Z,65.15
2018-10-12T09:08:25.003Z,65.17
2018-10-12T09:09:29.048Z,65.25
2018-10-12T09:10:33.020Z,64.74
2018-10-12T09:11:37.401Z,65.05
2018-10-12T09:12:41.401Z,64.88
2018-10-12T09:13:45.397Z,65.23
2018-10-12T09:14:50.763Z,64.89
2018-10-12T09:15:54.798Z,64.61
2018-10-12T09:16:58.822Z,64.62
2018-10-12T09:18:02.868Z,65.10
2018-10-12T09:19:07.016Z,64.54
2018-10-12T09:20:11.092Z,64.83
2018-10-12T09:21:15.176Z,64.48
2018-10-12T09:22:19.231Z,64.80
2018-10-12T09:23:23.272Z,64.00
2018-10-12T09:24:27.230Z,64.77
2018-10-12T09:25:31.256Z,64.41
2018-10-12T09:26:35.358Z,64.99
2018-10-12T09:27:39.379Z,64.85
2018-10-12T09:28:43.382Z,64.54
2018-10-12T09:29:47.412Z,64.57
2018-10-12T09:30:51.504Z,64.93
2018-10-12T09:31:55.636Z,64.65
2018-10-12T09:32:59.717Z,64.53
2018-10-12T09:34:03.703Z,64.39
2018-10-12T09:35:07.833Z,64.39
2018-10-12T09:36:11.884Z,64.30
2018-10-12T09:37:15.884Z,64.47
2018-10-12T09:38:19.945Z,64.22
2018-10-12T09:39:23.934Z,64.24
2018-10-12T09:40:28.010Z,63.74
2018-10-12T09:41:32.039Z,63.88
2018-10-12T09:42:36.063Z,64.41
2018-10-12T09:43:40.152Z,64.19
2018-10-12T09:44:44.155Z,64.34
2018-10-12T09:45:48.184Z,63.76
2018-10-12T09:46:52.208Z,64.03
2018-10-12T09:47:56.208Z,63.96
2018-10-12T09:49:00.223Z,63.66
2018-10-12T09:50:04.303Z,63.86
2018-10-12T09:51:08.302Z,63.58
2018-10-12T09:52:12.308Z,63.55
2018-10-12T09:53:16.365Z,63.34
2018-10-12T09:54:20.483Z,63.77
2018-10-12T09:55:24.651Z,63.69
2018-10-12T09:56:28.757Z,63.31
2018-10-12T09:57:34.616Z,63.57
2018-10-12T09:58:38.642Z,62.98
2018-10-12T09:59:42.741Z,63.13
2018-10-12T10:00:52.575Z,63.12
2018-10-12T10:02:01.876Z,62.65
2018-10-12T10:03:11.195Z,62.86
2018-10-12T10:04:18.555Z,62.63
2018-10-12T10:05:23.247Z,63.27
2018-10-12T10:06:27.322Z,63.28
2018-10-12T10:07:31.365Z,62.63
2018-10-12T10:08:35.874Z,62.74
2018-10-12T10:09:39.324Z,63.23
2018-10-12T10:10:43.372Z,62.71
2018-10-12T10:11:47.421Z,62.86
2018-10-12T10:12:51.410Z,62.78
2018-10-12T10:13:55.515Z,62.84
2018-10-12T10:14:59.455Z,62.37
2018-10-12T10:16:03.552Z,62.57
2018-10-12T10:17:07.588Z,62.39
2018-10-12T10:18:11.631Z,62.36
2018-10-12T10:19:15.729Z,62.32
2018-10-12T10:20:19.785Z,62.33
2018-10-12T10:21:24.192Z,62.47
2018-10-12T10:22:28.266Z,62.11
2018-10-12T10:23:32.212Z,62.70
2018-10-12T10:24:36.252Z,62.66
2018-10-12T10:25:40.285Z,61.73
2018-10-12T10:26:44.375Z,62.37
2018-10-12T10:27:48.365Z,61.97
2018-10-12T10:28:52.346Z,62.42
2018-10-12T10:29:56.381Z,62.02
2018-10-12T10:31:00.472Z,62.05
2018-10-12T10:32:04.468Z,62.02
2018-10-12T10:33:08.520Z,62.12
2018-10-12T10:34:12.488Z,62.20
2018-10-12T10:35:16.699Z,62.18
2018-10-12T10:36:20.981Z,62.13
2018-10-12T10:37:25.012Z,62.02
2018-10-12T10:38:29.055Z,61.72
2018-10-12T10:39:33.128Z,61.90
2018-10-12T10:40:37.198Z,61.65
2018-10-12T10:41:41.504Z,61.29
2018-10-12T10:42:45.605Z,61.42
2018-10-12T10:43:50.032Z,61.47
2018-10-12T10:44:54.135Z,60.93
2018-10-12T10:45:58.230Z,60.97
2018-10-12T10:47:02.323Z,61.07
2018-10-12T10:48:06.447Z,61.56
2018-10-12T10:49:10.515Z,61.48
2018-10-12T10:50:14.529Z,61.40
2018-10-12T10:51:18.544Z,61.14
2018-10-12T10:52:22.540Z,60.78
2018-10-12T10:53:26.676Z,61.39
2018-10-12T10:54:30.917Z,61.23
2018-10-12T10:55:34.916Z,61.00
2018-10-12T10:56:38.959Z,61.16
2018-10-12T10:57:43.115Z,61.31
2018-10-12T10:58:47.139Z,60.84
2018-10-12T10:59:51.152Z,60.48
2018-10-12T11:00:55.427Z,60.91
2018-10-12T11:01:59.409Z,60.21
2018-10-12T11:03:03.464Z,60.90
2018-10-12T11:04:08.023Z,60.27
2018-10-12T11:05:12.100Z,60.20
2018-10-12T11:06:16.383Z,60.44
2018-10-12T11:07:20.519Z,60.44
2018-10-12T11:08:24.574Z,60.67
2018-10-12T11:09:28.591Z,59.88
2018-10-12T11:10:32.694Z,60.49
2018-10-12T11:11:36.939Z,60.30
2018-10-12T11:12:41.589Z,60.18
2018-10-12T11:13:45.723Z,59.78
2018-10-12T11:14:49.765Z,59.94
2018-10-12T11:15:53.813Z,59.82
2018-10-12T11:16:58.800Z,59.54
2018-10-12T11:18:02.908Z,59.22
2018-10-12T11:19:07.132Z,59.69
2018-10-12T11:20:11.229Z,59.41
2018-10-12T11:21:15.235Z,59.21
2018-10-12T11:22:19.341Z,59.17
2018-10-12T11:23:23.370Z,59.57
2018-10-12T11:24:27.453Z,59.73
2018-10-12T11:25:31.700Z,59.89
2018-10-12T11:26:35.894Z,59.88
2018-10-12T11:27:39.955Z,59.92
2018-10-12T11:28:44.289Z,59.94
2018-10-12T11:29:48.280Z,59.48
2018-10-12T11:30:52.690Z,59.16
2018-10-12T11:31:56.960Z,59.39
2018-10-12T11:33:01.360Z,59.91
2018-10-12T11:34:05.619Z,59.44
2018-10-12T11:35:09.678Z,59.18
2018-10-12T11:36:13.744Z,59.19
2018-10-12T11:37:17.775Z,59.38
2018-10-12T11:38:21.865Z,59.21
2018-10-12T11:39:26.006Z,59.61
2018-10-12T11:40:30.124Z,58.71
2018-10-12T11:41:34.146Z,58.85
2018-10-12T11:42:49.588Z,59.25
2018-10-12T11:43:53.662Z,58.57
2018-10-12T11:44:57.756Z,59.06
2018-10-12T11:46:02.251Z,58.46
2018-10-12T11:47:06.269Z,58.23
2018-10-12T11:48:10.284Z,58.53
2018-10-12T11:49:14.416Z,58.51
2018-10-12T11:50:18.597Z,58.39
2018-10-12T11:51:22.582Z,57.88
2018-10-12T11:52:26.625Z,58.07
2018-10-12T11:53:30.784Z,58.49
2018-10-12T11:54:34.964Z,57.85
2018-10-12T11:55:39.201Z,58.04
2018-10-12T11:56:43.382Z,57.53
2018-10-12T11:57:47.354Z,58.05
2018-10-12T11:58:51.401Z,57.49
2018-10-12T11:59:55.423Z,57.82
2018-10-12T12:00:59.859Z,57.51
2018-10-12T12:02:03.936Z,57.40
2018-10-12T12:03:07.919Z,57.17
2018-10-12T12:04:11.908Z,56.51
2018-10-12T12:05:15.992Z,56.66
2018-10-12T12:06:20.134Z,56.30
2018-10-12T12:07:24.209Z,56.63
2018-10-12T12:08:28.083Z,56.37
2018-10-12T12:09:32.064Z,56.72
2018-10-12T12:10:36.107Z,57.02
2018-10-12T12:11:40.132Z,56.97
2018-10-12T12:12:44.129Z,56.45
2018-10-12T12:13:48.340Z,56.47
2018-10-12T12:14:52.354Z,56.82
2018-10-12T12:15:56.317Z,56.65
2018-10-12T12:17:00.384Z,56.25
2018-10-12T12:18:04.364Z,56.28
2018-10-12T12:19:08.351Z,56.50
2018-10-12T12:20:12.334Z,55.68
2018-10-12T12:21:16.356Z,55.97
2018-10-12T12:22:20.406Z,55.66
2018-10-12T12:23:24.803Z,56.12
2018-10-12T12:24:28.914Z,55.49
2018-10-12T12:25:33.033Z,55.96
2018-10-12T12:26:37.087Z,55.42
2018-10-12T12:27:41.226Z,55.19
2018-10-12T12:28:45.256Z,55.69
2018-10-12T12:29:49.231Z,55.66
2018-10-12T12:30:53.224Z,55.75
2018-10-12T12:31:57.212Z,55.08
2018-10-12T12:33:01.227Z,54.73
2018-10-12T12:34:05.309Z,54.17
2018-10-12T12:35:09.745Z,54.16
2018-10-12T12:36:14.253Z,53.85
2018-10-12T12:37:18.117Z,54.51
2018-10-12T12:38:22.200Z,54.40
2018-10-12T12:39:26.182Z,54.07
2018-10-12T12:40:30.216Z,54.23
2018-10-12T12:41:34.268Z,54.58
2018-10-12T12:42:38.426Z,54.03
2018-10-12T12:43:43.489Z,54.40
2018-10-12T12:44:47.467Z,53.81
2018-10-12T12:45:51.435Z,53.59
2018-10-12T12:46:55.420Z,54.27
2018-10-12T12:47:59.608Z,53.69
2018-10-12T12:49:03.591Z,53.66
2018-10-12T12:50:07.691Z,53.58
2018-10-12T12:51:13.059Z,53.61
2018-10-12T12:52:17.126Z,53.78
2018-10-12T12:53:21.075Z,52.99
2018-10-12T12:54:25.440Z,53.63
2018-10-12T12:55:29.431Z,53.39
2018-10-12T12:56:33.549Z,53.48
2018-10-12T12:57:37.529Z,53.42
2018-10-12T12:58:41.813Z,52.93
2018-10-12T12:59:45.935Z,52.57
2018-10-12T13:00:49.973Z,52.69
2018-10-12T13:01:54.231Z,52.87
2018-10-12T13:02:58.228Z,53.12
2018-10-12T13:04:02.228Z,52.31
2018-10-12T13:05:06.355Z,52.16
2018-10-12T13:06:10.384Z,52.75
2018-10-12T13:07:14.335Z,51.98
2018-10-12T13:08:18.627Z,52.50
2018-10-12T13:09:22.919Z,52.06
2018-10-12T13:10:26.891Z,52.36
2018-10-12T13:11:30.919Z,52.84
2018-10-12T13:12:34.889Z,52.82
2018-10-12T13:13:39.100Z,52.30
2018-10-12T13:14:43.321Z,52.04
2018-10-12T13:15:47.418Z,52.38
2018-10-12T13:16:51.412Z,52.11
2018-10-12T13:17:55.359Z,52.25
2018-10-12T13:18:59.392Z,52.25
2018-10-12T13:20:03.385Z,52.16
2018-10-12T13:21:07.811Z,52.43
2018-10-12T13:22:11.760Z,52.02
2018-10-12T13:23:17.333Z,52.11
2018-10-12T13:24:21.315Z,51.77
2018-10-12T13:25:25.350Z,51.08
2018-10-12T13:26:29.334Z,51.74
2018-10-12T13:27:33.404Z,51.22
2018-10-12T13:28:37.400Z,51.75
2018-10-12T13:29:41.613Z,51.50
2018-10-12T13:30:49.056Z,50.78
2018-10-12T13:31:53.104Z,50.65
2018-10-12T13:32:57.031Z,51.34
2018-10-12T13:34:01.004Z,50.92
2018-10-12T13:35:04.995Z,50.39
2018-10-12T13:36:09.223Z,50.45
2018-10-12T13:37:13.243Z,50.43
2018-10-12T13:38:17.221Z,50.06
2018-10-12T13:39:21.205Z,50.54
2018-10-12T13:40:25.194Z,49.79
2018-10-12T13:41:29.216Z,50.19
2018-10-12T13:42:33.208Z,49.73
2018-10-12T13:43:37.207Z,49.68
2018-10-12T13:44:41.280Z,50.20
2018-10-12T13:45:45.283Z,50.11
2018-10-12T13:46:49.280Z,50.44